Latest Weather Observations for Whoop Whoop*

IDT60801

Issued at 11:32 am EDT Monday 5 December 2016 (issued every 30 minutes, with the page automatically refreshed every 10 minutes)

About weather observations | Map of weather stations | Latest weather observations for ANT | Other Formats
Station Details ID: 300055 Name: DAVIS (WHOOP WHOOP) Lat: -68.47 Lon: 78.87 Height: 545.0 m
Data from the previous 72 hours. | See also: Recent months for locations in Antarctica
Date/Time
EDT
Temp
°C
App
Temp
°C
Dew
Point
°C
Rel
Hum
%
Delta-T
°C
Wind Press
QNH
hPa
Press
MSL
hPa
Rain since
9am
mm
Dir  Spd
km/h
Gust
km/h
Spd
kts
Gust
kts
05/10:00am -8.4 -25.2 -10.5 85 - E 72 83 39 45 987.6 - -
05/09:30am -8.4 -25.9 -10.5 85 - E 76 85 41 46 987.4 - -
05/09:00am -8.0 -25.9 -10.1 85 - E 78 89 42 48 987.3 - -
05/08:30am -8.1 -25.2 -10.2 85 - E 74 85 40 46 987.3 - -
05/08:00am -8.5 -25.7 -10.6 85 - E 74 85 40 46 987.5 - -
05/07:30am -8.5 -24.9 -10.6 85 - E 70 80 38 43 987.7 - -
05/07:00am -8.3 -24.1 -10.2 86 - E 67 76 36 41 988.1 - -
05/06:30am -8.1 -23.5 -10.2 85 - E 65 76 35 41 988.2 - -
05/06:00am -7.7 -22.7 -9.8 85 - E 63 72 34 39 988.2 - -
05/05:30am -7.6 -22.6 -9.5 86 - E 63 76 34 41 988.2 - -
05/05:00am -7.3 -22.3 -9.2 86 - E 63 78 34 42 988.2 - -
05/04:30am -7.1 -21.7 -8.9 87 - E 61 74 33 40 988.2 - -
05/04:00am -6.7 -21.6 -8.5 87 - E 63 74 34 40 988.1 - -
05/03:30am -6.4 -20.9 -8.2 87 - E 61 70 33 38 988.2 - -
05/03:00am -6.1 -20.6 -7.9 87 - E 61 70 33 38 988.2 - -
05/02:30am -5.9 -20.3 -7.6 88 - E 61 72 33 39 988.3 - -
05/02:00am -5.8 -21.0 -7.5 88 - E 65 72 35 39 988.6 - -
05/01:30am -5.5 -19.2 -7.3 87 - E 57 69 31 37 988.4 - -
05/01:00am -5.4 -19.4 -7.1 88 - E 59 69 32 37 988.4 - -
05/12:30am -5.2 -20.0 -6.9 88 - E 63 72 34 39 988.6 - -
05/12:00am -4.9 -19.6 -6.7 87 - E 63 72 34 39 988.6 - -
 
Date/Time
EDT
Temp
°C
App
Temp
°C
Dew
Point
°C
Rel
Hum
%
Delta-T
°C
Wind Press
QNH
hPa
Press
MSL
hPa
Rain since
9am
mm
Dir  Spd
km/h
Gust
km/h
Spd
kts
Gust
kts
04/11:30pm -4.6 -19.3 -6.6 86 - ENE 63 74 34 40 988.6 - -
04/11:00pm -4.4 -18.0 -6.4 86 - ENE 57 69 31 37 988.5 - -
04/10:30pm -4.3 -18.2 -6.3 86 - ENE 59 69 32 37 988.6 - -
04/10:00pm -4.3 -19.0 -6.3 86 - ENE 63 76 34 41 988.5 - -
04/09:30pm -4.2 -18.5 -6.2 86 - ENE 61 74 33 40 988.6 - -
04/09:00pm -4.1 -18.4 -6.1 86 - ENE 61 72 33 39 988.7 - -
04/08:30pm -3.8 -19.2 -5.8 86 - ENE 67 80 36 43 988.9 - -
04/08:02pm -3.8 -18.1 -5.6 87 - ENE 61 80 33 43 989.0 - -
04/08:00pm -3.8 -18.5 -6.1 84 - ENE 63 80 34 43 988.9 - -
04/07:42pm -3.8 -17.7 -5.6 87 - ENE 59 78 32 42 988.9 - -
04/07:30pm -3.9 -19.0 -5.9 86 - ENE 65 78 35 42 988.7 - -
04/07:00pm -3.9 -18.9 -5.7 87 - ENE 65 78 35 42 988.7 - -
04/06:30pm -3.9 -18.9 -5.7 87 - ENE 65 74 35 40 988.7 - -
04/06:00pm -4.0 -19.0 -5.7 88 - ENE 65 76 35 41 988.5 - -
04/05:44pm -4.0 -19.0 -5.8 87 - ENE 65 83 35 45 988.3 - -
04/05:30pm -4.1 -18.4 -5.8 88 - ENE 61 76 33 41 988.4 - -
04/05:00pm -4.3 -19.3 -5.7 90 - ENE 65 78 35 42 988.3 - -
04/04:30pm -4.4 -19.1 -5.8 90 - NE 63 78 34 42 987.7 - -
04/04:00pm -4.4 -19.8 -5.6 91 - NE 67 76 36 41 987.5 - -
04/03:30pm -4.6 -20.0 -5.7 92 - NE 67 82 36 44 987.1 - -
04/03:00pm -4.8 -19.9 -5.9 92 - NE 65 80 35 43 986.4 - -
04/02:46pm -4.7 -20.1 -5.8 92 - NE 67 85 36 46 986.0 - -
04/02:30pm -5.0 -20.4 -6.1 92 - NE 67 80 36 43 985.7 - -
04/02:20pm -4.8 -20.8 -5.9 92 - NE 70 89 38 48 985.5 - -
04/02:00pm -5.3 -21.7 -6.4 92 - NE 72 83 39 45 984.7 - -
04/01:30pm -5.3 -21.7 -6.2 93 - NE 72 87 39 47 984.3 - -
04/01:20pm -5.1 -20.9 -6.2 92 - NE 69 89 37 48 983.7 - -
04/01:00pm -5.2 -21.0 -6.2 93 - NE 69 85 37 46 983.7 - -
04/12:59pm -5.2 -20.7 -6.2 93 - NE 67 85 36 46 983.7 - -
04/12:30pm -5.0 -21.4 -6.0 93 - NE 72 89 39 48 982.9 - -
04/12:24pm -4.9 -20.9 -5.9 93 - NE 70 89 38 48 982.7 - -
04/12:00pm -4.7 -21.4 -5.7 93 - NE 74 91 40 49 982.1 - -
04/11:35am -4.7 -21.4 -5.7 93 - NE 74 95 40 51 981.1 - -
04/11:30am -4.8 -21.6 -5.8 93 - NE 74 89 40 48 981.1 - -
04/11:00am -4.9 -23.2 -6.0 92 - NE 82 96 44 52 980.1 - -
04/10:46am -4.9 -22.8 -6.1 91 - NE 80 100 43 54 979.2 - -
04/10:30am -5.2 -23.7 -6.3 92 - NE 83 98 45 53 979.1 - -
04/10:21am -5.2 -24.1 -6.4 91 - NE 85 104 46 56 978.7 - -
04/09:30am -5.5 -27.3 -6.7 91 - ENE 100 120 54 65 977.3 - -
04/09:00am -5.6 -28.5 -6.8 91 - ENE 106 124 57 67 977.0 - -
04/08:30am -5.7 -28.3 -6.9 91 - ENE 104 122 56 66 977.0 - -
04/08:01am -5.7 -27.9 -6.9 91 - ENE 102 120 55 65 976.9 - -
04/08:00am -5.7 -28.3 -6.9 91 - ENE 104 120 56 65 976.6 - -
04/07:39am -5.8 -28.4 -7.0 91 - ENE 104 124 56 67 976.6 - -
04/07:30am -5.9 -27.3 -7.1 91 - ENE 98 113 53 61 977.6 - -
04/07:02am -5.9 -27.7 -7.1 91 - ENE 100 119 54 64 977.3 - -
04/07:00am -6.0 -27.8 -7.2 91 - ENE 100 113 54 61 977.1 - -
04/06:00am -6.0 -28.2 -7.2 91 - ENE 102 120 55 65 975.8 - -
04/05:30am -6.0 -27.4 -7.2 91 - ENE 98 117 53 63 976.5 - -
04/05:00am -6.1 -26.6 -7.5 90 - ENE 93 119 50 64 976.7 - -
04/04:43am -6.3 -25.7 -7.5 91 - ENE 87 106 47 57 977.5 - -
04/04:30am -6.2 -26.7 -7.6 90 - ENE 93 109 50 59 977.2 - -
04/04:00am -6.2 -26.7 -7.6 90 - E 93 111 50 60 977.1 - -
04/03:54am -6.3 -26.1 -7.7 90 - E 89 109 48 59 977.3 - -
04/03:30am -6.3 -26.1 -7.7 90 - ENE 89 106 48 57 977.4 - -
04/03:01am -6.3 -25.3 -7.7 90 - E 85 104 46 56 978.2 - -
04/03:00am -6.3 -25.3 -7.7 90 - ENE 85 102 46 55 978.2 - -
04/02:35am -6.3 -25.3 -7.8 89 - ENE 85 104 46 56 978.3 - -
04/02:30am -6.3 -25.3 -7.7 90 - ENE 85 102 46 55 978.3 - -
04/02:02am -6.2 -24.6 -7.7 89 - ENE 82 100 44 54 978.6 - -
04/01:30am -5.9 -25.7 -7.4 89 - ENE 89 107 48 58 978.4 - -
04/01:00am -5.8 -25.9 -7.2 90 - ENE 91 109 49 59 978.1 - -
04/12:30am -5.5 -24.1 -7.0 89 - ENE 83 102 45 55 978.5 - -
04/12:00am -5.1 -22.7 -6.6 89 - ENE 78 93 42 50 978.8 - -
 
Date/Time
EDT
Temp
°C
App
Temp
°C
Dew
Point
°C
Rel
Hum
%
Delta-T
°C
Wind Press
QNH
hPa
Press
MSL
hPa
Rain since
9am
mm
Dir  Spd
km/h
Gust
km/h
Spd
kts
Gust
kts
03/11:30pm -5.0 -21.8 -6.8 87 - ENE 74 89 40 48 979.3 - -
03/11:09pm -4.8 -21.3 -7.1 84 - ENE 72 91 39 49 979.7 - -
03/11:00pm -4.8 -21.3 -7.1 84 - ENE 72 87 39 47 980.0 - -
03/10:14pm -4.6 -19.1 -7.7 79 - ENE 61 83 33 45 980.6 - -
03/10:00pm -4.3 -17.8 -7.9 76 - E 56 69 30 37 981.6 - -
03/09:30pm -4.0 -16.4 -8.3 72 - E 50 61 27 33 982.6 - -
03/09:00pm -3.4 -15.1 -8.6 67 - E 46 59 25 32 983.4 - -
03/08:30pm -3.4 -14.7 -8.6 67 - E 44 54 24 29 983.6 - -
03/08:00pm -3.6 -15.7 -9.0 66 - E 48 57 26 31 983.7 - -
03/07:30pm -3.8 -14.5 -8.6 69 - E 41 54 22 29 983.8 - -
03/07:00pm -3.7 -14.8 -8.7 68 - E 43 54 23 29 984.0 - -
03/06:30pm -4.0 -16.4 -8.6 70 - E 50 63 27 34 984.3 - -
03/06:00pm -4.5 -18.1 -8.9 71 - ENE 56 67 30 36 984.4 - -
03/05:30pm -4.5 -17.8 -9.3 69 - E 54 63 29 34 984.6 - -
03/05:00pm -4.3 -16.1 -9.9 65 - E 46 59 25 32 984.9 - -
03/04:30pm -4.8 -18.5 -10.3 65 - E 56 67 30 36 985.2 - -
03/03:30pm -5.7 -20.8 -10.5 69 - E 63 74 34 40 984.5 - -
03/03:00pm -5.9 -20.2 -11.0 67 - E 59 69 32 37 985.0 - -
03/02:30pm -6.3 -20.3 -11.4 67 - E 57 70 31 38 985.8 - -
03/02:00pm -6.9 -22.1 -11.8 68 - E 63 72 34 39 985.6 - -
03/01:30pm -7.4 -22.2 -12.5 67 - E 61 72 33 39 986.2 - -
03/01:00pm -7.8 -21.9 -13.0 66 - E 57 69 31 37 986.6 - -
03/12:30pm -8.5 -23.8 -14.1 64 - E 63 72 34 39 987.1 - -
03/12:00pm -8.7 -23.2 -14.4 63 - E 59 69 32 37 987.3 - -
03/11:30am -8.9 -23.1 -14.6 63 - E 57 67 31 36 987.7 - -
03/11:00am -9.1 -22.7 -14.8 63 - E 54 63 29 34 988.0 - -
03/10:00am -8.9 -22.6 -16.3 55 - E 54 63 29 34 988.6 - -
03/09:30am -8.9 -22.2 -16.3 55 - E 52 61 28 33 989.1 - -
03/09:00am -9.3 -22.2 -16.0 58 - E 50 57 27 31 989.6 - -
03/08:30am -9.4 -22.3 -16.1 58 - E 50 57 27 31 990.1 - -
03/08:00am -9.3 -22.2 -16.2 57 - E 50 57 27 31 990.4 - -
03/07:30am -9.3 -21.8 -15.8 59 - E 48 54 26 29 990.6 - -
03/07:00am -9.2 -21.3 -15.5 60 - E 46 54 25 29 991.0 - -
03/06:30am -9.0 -21.5 -14.9 62 - E 48 54 26 29 991.1 - -
03/06:00am -8.5 -21.0 -14.3 63 - E 48 56 26 30 991.4 - -
03/05:00am -8.2 -19.6 -13.4 66 - E 43 48 23 26 991.9 - -
03/04:30am -7.8 -18.4 -12.7 68 - E 39 44 21 24 992.3 - -
03/04:00am -7.2 -17.8 -12.1 68 - E 39 43 21 23 992.6 - -
03/03:30am -6.8 -16.6 -11.3 70 - E 35 41 19 22 992.9 - -
03/03:00am -6.3 -15.1 -10.9 70 - E 30 33 16 18 993.2 - -
03/02:30am -5.6 -13.2 -10.0 71 - E 24 28 13 15 993.4 - -
03/02:00am -5.2 -12.4 -9.3 73 - E 22 26 12 14 993.7 - -
03/01:30am -4.6 -11.4 -8.7 73 - ENE 20 24 11 13 993.9 - -
03/01:00am -3.6 -9.8 -8.6 68 - NE 17 24 9 13 994.0 - -
03/12:30am -3.1 -9.2 -7.6 71 - NNE 17 24 9 13 994.1 - -
03/12:00am -2.6 -9.3 -8.1 66 - ENE 20 24 11 13 994.1 - -
 
Date/Time
EDT
Temp
°C
App
Temp
°C
Dew
Point
°C
Rel
Hum
%
Delta-T
°C
Wind Press
QNH
hPa
Press
MSL
hPa
Rain since
9am
mm
Dir  Spd
km/h
Gust
km/h
Spd
kts
Gust
kts
02/11:00pm -1.8 -8.3 -7.7 64 - ENE 19 22 10 12 994.6 - -

Other Formats:

Comma delimited format used in spreadsheet applications
http://www.bom.gov.au/fwo/IDT60803/IDT60803.89570.axf

JavaScript Object Notation format (JSON) in row-major order
http://www.bom.gov.au/fwo/IDT60803/IDT60803.89570.json